Overview Statistics Trail Chart Weather Telemetry Raw packets
 

This is the latest recevied weather packets stored in our database for station/object OK2KJT-11. If no packets are shown the sender has not sent any weather packets the latest 10 day(s).

<< 44 45 46 47 48 49 50 >>
Time Temp. Humidity Pressure Rain* Wind** Luminosity Snow
1788029492 17.22° C 62% 1019 hPa - - - -
1788027694 17.78° C 61% 1019 hPa - - - -
1788027092 17.22° C 61% 1018.8 hPa - - - -
1788026501 17.78° C 61% 1018.7 hPa - - - -
1788025893 17.78° C 61% 1018.6 hPa - - - -
1788025294 17.78° C 61% 1018.6 hPa - - - -
1788024694 18.33° C 60% 1018.5 hPa - - - -
1788024095 19.44° C 57% 1018.5 hPa - - - -
1788023495 20° C 55% 1018.6 hPa - - - -
1788022295 20.56° C 55% 1018.6 hPa - - - -
1788021698 20.56° C 53% 1018.6 hPa - - - -
1788021096 21.11° C 51% 1018.6 hPa - - - -
1788020496 21.67° C 50% 1018.7 hPa - - - -
1788019897 22.22° C 51% 1018.7 hPa - - - -
1788019304 21.67° C 51% 1018.7 hPa - - - -
1788018697 21.11° C 55% 1018.7 hPa - - - -
1788018097 20.56° C 55% 1018.7 hPa - - - -
1788017497 20.56° C 56% 1018.7 hPa - - - -
1788016900 21.11° C 55% 1018.8 hPa - - - -
1788016297 22.22° C 53% 1018.8 hPa - - - -
1788015699 21.67° C 55% 1018.8 hPa - - - -
1788015098 20.56° C 57% 1018.8 hPa - - - -
1788014497 20° C 58% 1018.8 hPa - - - -
1788013898 20° C 58% 1018.9 hPa - - - -
1788013298 20° C 59% 1018.9 hPa - - - -

* Rain since midnight (hover to see other rain measurements)
** Current wind speed in m/s (hover to see current wind gust speed)